Birmingham, Illinois
Current Conditions -  °F | °C
As of 7:15 AM on Wednesday 22 Oct 2014 (Local Time) from KMQB Reporting Station
Moderate Fog Moderate Fog  
Wind Chill: -1°   Ceiling: 200
Heat Index: -1°   Visibility: 0.5mi
Dew Point: -1°   Wind: 0mph
Humidity: 100%   Direction: NA
Pressure: 30.33"   Gusts: NA
Location:  40.2814°N, 90.8526°W
Report Text: KMQB 221215Z AUTO 00000KT 1/2SM FZFG OVC002 M01/M01 A3033 RMK AO2 VIS 1/4V2 1/2 T10061006
Loading
Personal Weather Stations






























Interactive Weather Map
Tropical Storm Tracking
New forecast layout! Learn more

10-Day Weather Forecast

Advertisements
Track Severe Weather on mobile